createdAt,value
2022-10-17T00:01:25.808Z,56.45
2022-10-17T00:03:52.563Z,56.40
2022-10-17T00:06:19.403Z,56.37
2022-10-17T00:08:46.094Z,56.59
2022-10-17T00:11:16.973Z,56.27
2022-10-17T00:13:44.169Z,56.18
2022-10-17T00:16:11.061Z,56.29
2022-10-17T00:18:37.887Z,56.31
2022-10-17T00:21:04.836Z,56.16
2022-10-17T00:23:31.655Z,56.17
2022-10-17T00:26:03.102Z,56.06
2022-10-17T00:28:30.246Z,56.22
2022-10-17T00:31:02.112Z,56.63
2022-10-17T00:33:29.167Z,56.15
2022-10-17T00:36:09.952Z,56.63
2022-10-17T00:38:37.145Z,56.44
2022-10-17T00:41:04.352Z,56.19
2022-10-17T00:43:49.557Z,56.47
2022-10-17T00:46:16.292Z,56.50
2022-10-17T00:48:43.504Z,56.10
2022-10-17T00:51:10.273Z,56.20
2022-10-17T00:53:37.603Z,56.64
2022-10-17T00:56:04.746Z,56.64
2022-10-17T00:58:31.464Z,56.25
2022-10-17T01:00:58.662Z,56.58
2022-10-17T01:03:25.559Z,56.32
2022-10-17T01:05:52.403Z,56.19
2022-10-17T01:08:19.782Z,56.53
2022-10-17T01:11:07.398Z,56.35
2022-10-17T01:13:55.433Z,56.58
2022-10-17T01:16:32.580Z,56.66
2022-10-17T01:19:14.359Z,56.71
2022-10-17T01:21:46.281Z,56.57
2022-10-17T01:24:46.634Z,56.40
2022-10-17T01:27:13.460Z,56.20
2022-10-17T01:30:19.167Z,56.25
2022-10-17T01:32:50.327Z,56.08
2022-10-17T01:35:24.028Z,56.54
2022-10-17T01:37:59.507Z,56.53
2022-10-17T01:40:29.918Z,56.53
2022-10-17T01:43:15.296Z,56.70
2022-10-17T01:45:52.582Z,56.32
2022-10-17T01:48:26.000Z,56.63
2022-10-17T01:50:57.004Z,56.35
2022-10-17T01:53:36.423Z,56.56
2022-10-17T01:56:05.787Z,56.32
2022-10-17T01:58:40.030Z,56.70
2022-10-17T02:01:07.989Z,56.44
2022-10-17T02:03:35.202Z,56.37
2022-10-17T02:06:12.304Z,56.81
2022-10-17T02:08:47.151Z,56.58
2022-10-17T02:11:25.529Z,56.36
2022-10-17T02:13:58.311Z,56.41
2022-10-17T02:16:46.000Z,56.32
2022-10-17T02:19:34.448Z,56.41
2022-10-17T02:22:10.216Z,56.75
2022-10-17T02:24:57.088Z,56.72
2022-10-17T02:27:44.981Z,56.38
2022-10-17T02:30:19.391Z,56.56
2022-10-17T02:33:10.404Z,56.69
2022-10-17T02:35:40.322Z,56.62
2022-10-17T02:38:08.294Z,56.28
2022-10-17T02:40:44.179Z,56.52
2022-10-17T02:43:14.500Z,56.53
2022-10-17T02:45:41.844Z,56.42
2022-10-17T02:48:16.836Z,56.70
2022-10-17T02:50:57.196Z,56.44
2022-10-17T02:53:30.724Z,56.20
2022-10-17T02:56:01.028Z,56.64
2022-10-17T02:58:33.559Z,56.57
2022-10-17T03:01:01.460Z,56.46
2022-10-17T03:03:31.345Z,56.66
2022-10-17T03:06:01.379Z,56.64
2022-10-17T03:08:28.213Z,56.29
2022-10-17T03:10:56.029Z,56.35
2022-10-17T03:13:23.255Z,56.85
2022-10-17T03:15:50.375Z,56.33
2022-10-17T03:18:17.416Z,56.73
2022-10-17T03:20:45.735Z,56.36
2022-10-17T03:23:12.442Z,56.84
2022-10-17T03:25:40.081Z,56.67
2022-10-17T03:28:06.896Z,56.37
2022-10-17T03:30:33.619Z,56.37
2022-10-17T03:33:00.624Z,56.52
2022-10-17T03:35:27.820Z,56.44
2022-10-17T03:37:58.159Z,56.69
2022-10-17T03:40:27.192Z,56.20
2022-10-17T03:42:54.269Z,56.64
2022-10-17T03:45:21.674Z,56.63
2022-10-17T03:47:48.859Z,56.55
2022-10-17T03:50:15.835Z,56.63
2022-10-17T03:52:47.929Z,56.71
2022-10-17T03:55:15.510Z,56.71
2022-10-17T03:57:45.442Z,56.70
2022-10-17T04:00:14.777Z,56.60
2022-10-17T04:02:41.612Z,56.53
2022-10-17T04:05:12.635Z,56.23
2022-10-17T04:07:40.586Z,56.42
2022-10-17T04:10:08.246Z,56.17
2022-10-17T04:12:35.249Z,56.59
2022-10-17T04:15:02.071Z,56.35
2022-10-17T04:17:35.776Z,56.45
2022-10-17T04:20:05.947Z,56.13
2022-10-17T04:22:32.688Z,56.42
2022-10-17T04:24:59.495Z,56.17
2022-10-17T04:27:35.031Z,56.16
2022-10-17T04:30:01.869Z,56.38
2022-10-17T04:32:31.443Z,56.43
2022-10-17T04:35:06.658Z,56.04
2022-10-17T04:37:33.589Z,56.20
2022-10-17T04:40:06.241Z,55.99
2022-10-17T04:42:34.394Z,56.33
2022-10-17T04:45:01.295Z,56.18
2022-10-17T04:47:28.223Z,56.50
2022-10-17T04:49:55.824Z,56.35
2022-10-17T04:52:23.027Z,56.35
2022-10-17T04:54:50.326Z,56.11
2022-10-17T04:57:18.760Z,56.28
2022-10-17T04:59:59.066Z,55.97
2022-10-17T05:02:57.944Z,56.15
2022-10-17T05:05:26.265Z,56.12
2022-10-17T05:07:54.181Z,55.82
2022-10-17T05:10:25.063Z,55.75
2022-10-17T05:12:53.356Z,55.95
2022-10-17T05:15:23.180Z,55.95
2022-10-17T05:17:57.353Z,55.66
2022-10-17T05:20:26.478Z,55.68
2022-10-17T05:22:53.621Z,55.73
2022-10-17T05:25:21.007Z,55.65
2022-10-17T05:27:47.716Z,55.58
2022-10-17T05:30:15.100Z,55.86
2022-10-17T05:32:42.141Z,55.94
2022-10-17T05:35:10.990Z,55.88
2022-10-17T05:37:38.652Z,55.49
2022-10-17T05:40:06.166Z,55.66
2022-10-17T05:42:33.371Z,55.28
2022-10-17T05:45:00.300Z,55.51
2022-10-17T05:47:27.550Z,55.71
2022-10-17T05:49:54.519Z,55.67
2022-10-17T05:52:27.637Z,55.66
2022-10-17T05:55:06.561Z,55.68
2022-10-17T05:57:33.556Z,55.32
2022-10-17T06:00:01.199Z,54.56
2022-10-17T06:02:41.041Z,54.37
2022-10-17T06:05:09.044Z,54.60
2022-10-17T06:07:35.947Z,55.11
2022-10-17T06:10:04.307Z,55.20
2022-10-17T06:12:31.564Z,54.99
2022-10-17T06:14:59.208Z,55.01
2022-10-17T06:17:26.626Z,55.06
2022-10-17T06:19:53.305Z,55.23
2022-10-17T06:22:20.089Z,55.61
2022-10-17T06:24:47.167Z,55.73
2022-10-17T06:27:15.083Z,55.50
2022-10-17T06:29:41.803Z,55.71
2022-10-17T06:32:12.552Z,55.75
2022-10-17T06:34:44.307Z,56.03
2022-10-17T06:37:11.203Z,56.15
2022-10-17T06:39:39.737Z,55.83
2022-10-17T06:42:19.748Z,55.97
2022-10-17T06:45:18.718Z,55.73
2022-10-17T06:48:06.516Z,55.83
2022-10-17T06:51:07.252Z,56.15
2022-10-17T06:53:44.135Z,56.20
2022-10-17T06:56:31.331Z,56.21
2022-10-17T06:59:16.873Z,56.73
2022-10-17T07:01:51.504Z,56.24
2022-10-17T07:04:18.437Z,56.83
2022-10-17T07:06:45.383Z,56.77
2022-10-17T07:09:18.935Z,56.66
2022-10-17T07:11:46.031Z,56.78
2022-10-17T07:14:16.827Z,57.01
2022-10-17T07:16:43.655Z,57.17
2022-10-17T07:19:17.991Z,57.25
2022-10-17T07:21:45.147Z,57.39
2022-10-17T07:24:13.108Z,57.76
2022-10-17T07:26:42.789Z,57.88
2022-10-17T07:29:10.513Z,58.35
2022-10-17T07:31:41.706Z,57.95
2022-10-17T07:34:08.465Z,58.45
2022-10-17T07:36:35.350Z,58.29
2022-10-17T07:39:05.080Z,58.62
2022-10-17T07:41:33.176Z,58.94
2022-10-17T07:43:59.985Z,59.44
2022-10-17T07:46:32.605Z,59.33
2022-10-17T07:48:59.676Z,59.33
2022-10-17T07:51:26.916Z,59.46
2022-10-17T07:53:53.648Z,58.98
2022-10-17T07:56:24.606Z,58.86
2022-10-17T07:58:52.326Z,59.13
2022-10-17T08:01:19.202Z,59.24
2022-10-17T08:03:47.155Z,59.19
2022-10-17T08:06:14.577Z,58.61
2022-10-17T08:08:41.830Z,58.63
2022-10-17T08:11:11.471Z,58.78
2022-10-17T08:13:38.486Z,58.77
2022-10-17T08:16:07.545Z,58.03
2022-10-17T08:18:35.420Z,58.40
2022-10-17T08:21:06.203Z,58.09
2022-10-17T08:23:32.997Z,58.17
2022-10-17T08:26:01.007Z,58.27
2022-10-17T08:28:28.074Z,57.62
2022-10-17T08:31:03.051Z,58.05
2022-10-17T08:33:29.759Z,57.19
2022-10-17T08:35:58.784Z,57.42
2022-10-17T08:38:27.773Z,56.96
2022-10-17T08:40:58.156Z,56.39
2022-10-17T08:43:31.229Z,56.38
2022-10-17T08:46:04.051Z,56.28
2022-10-17T08:48:34.539Z,55.67
2022-10-17T08:51:27.856Z,55.98
2022-10-17T08:54:01.579Z,55.70
2022-10-17T08:56:48.528Z,56.03
2022-10-17T08:59:25.807Z,55.85
2022-10-17T09:02:10.772Z,55.34
2022-10-17T09:05:04.312Z,55.59
2022-10-17T09:07:50.193Z,55.35
2022-10-17T09:10:32.188Z,55.28
2022-10-17T09:13:25.017Z,55.36
2022-10-17T09:16:23.290Z,54.93
2022-10-17T09:19:00.002Z,54.08
2022-10-17T09:21:40.378Z,53.95
2022-10-17T09:24:15.804Z,53.44
2022-10-17T09:26:45.300Z,53.19
2022-10-17T09:29:20.590Z,53.41
2022-10-17T09:31:53.913Z,53.16
2022-10-17T09:34:24.044Z,53.23
2022-10-17T09:36:53.611Z,52.76
2022-10-17T09:39:23.819Z,52.65
2022-10-17T09:41:53.412Z,52.90
2022-10-17T09:44:30.815Z,52.62
2022-10-17T09:47:06.603Z,52.58
2022-10-17T09:49:35.688Z,52.21
2022-10-17T09:52:09.580Z,52.61
2022-10-17T09:54:46.816Z,51.76
2022-10-17T09:57:15.068Z,51.85
2022-10-17T09:59:45.291Z,51.82
2022-10-17T10:02:14.663Z,51.79
2022-10-17T10:05:03.881Z,51.67
2022-10-17T10:07:36.488Z,51.38
2022-10-17T10:10:05.894Z,51.11
2022-10-17T10:12:35.357Z,50.58
2022-10-17T10:15:02.187Z,50.01
2022-10-17T10:17:37.600Z,49.47
2022-10-17T10:20:26.112Z,49.70
2022-10-17T10:23:21.407Z,49.59
2022-10-17T10:25:55.707Z,49.70
2022-10-17T10:28:33.664Z,49.64
2022-10-17T10:31:04.720Z,49.93
2022-10-17T10:33:33.956Z,49.34
2022-10-17T10:36:03.644Z,49.17
2022-10-17T10:38:32.430Z,49.38
2022-10-17T10:41:04.986Z,49.54
2022-10-17T10:43:31.740Z,49.43
2022-10-17T10:45:58.551Z,49.04
2022-10-17T10:48:30.723Z,49.23
2022-10-17T10:51:04.688Z,48.45
2022-10-17T10:53:38.460Z,49.04
2022-10-17T10:56:24.020Z,48.61
2022-10-17T10:59:08.919Z,48.65
2022-10-17T11:01:54.004Z,48.69
2022-10-17T11:04:26.676Z,49.19
2022-10-17T11:06:58.267Z,49.05
2022-10-17T11:09:43.731Z,49.29
2022-10-17T11:12:12.258Z,49.43
2022-10-17T11:14:53.979Z,49.25
2022-10-17T11:17:38.759Z,48.80
2022-10-17T11:20:20.739Z,49.20
2022-10-17T11:22:57.661Z,49.14
2022-10-17T11:25:41.240Z,49.24
2022-10-17T11:28:17.507Z,48.70
2022-10-17T11:30:51.761Z,48.80
2022-10-17T11:33:25.034Z,49.11
2022-10-17T11:35:53.660Z,48.74
2022-10-17T11:38:41.993Z,49.16
2022-10-17T11:41:13.745Z,48.71
2022-10-17T11:43:45.799Z,49.04
2022-10-17T11:46:17.384Z,48.85
2022-10-17T11:49:11.790Z,48.45
2022-10-17T11:52:44.458Z,48.22
2022-10-17T11:55:26.098Z,47.79
2022-10-17T11:58:30.810Z,47.41
2022-10-17T12:01:04.311Z,47.61
2022-10-17T12:03:49.930Z,47.67
2022-10-17T12:07:12.964Z,47.52
2022-10-17T12:09:46.197Z,47.66
2022-10-17T12:12:25.902Z,47.56
2022-10-17T12:14:53.406Z,47.65
2022-10-17T12:17:28.442Z,47.96
2022-10-17T12:20:21.346Z,47.85
2022-10-17T12:22:49.604Z,47.70
2022-10-17T12:25:32.785Z,47.30
2022-10-17T12:28:08.232Z,46.81
2022-10-17T12:30:35.259Z,46.94
2022-10-17T12:33:46.012Z,47.20
2022-10-17T12:36:18.956Z,47.00
2022-10-17T12:38:50.259Z,46.65
2022-10-17T12:41:19.307Z,46.53
2022-10-17T12:46:45.202Z,46.67
2022-10-17T12:49:52.026Z,46.86
2022-10-17T12:52:26.800Z,46.65
2022-10-17T12:55:00.518Z,47.04
2022-10-17T12:57:47.206Z,46.66
2022-10-17T13:00:19.791Z,47.03
2022-10-17T13:02:47.679Z,46.90
2022-10-17T13:05:17.846Z,46.58
2022-10-17T13:07:44.686Z,46.47
2022-10-17T13:10:24.088Z,46.88
2022-10-17T13:12:52.258Z,46.46
2022-10-17T13:15:20.434Z,46.76
2022-10-17T13:17:56.979Z,46.88
2022-10-17T13:20:30.581Z,47.06
2022-10-17T13:22:59.959Z,46.96
2022-10-17T13:25:27.927Z,47.04
2022-10-17T13:28:07.176Z,46.56
2022-10-17T13:30:37.239Z,46.96
2022-10-17T13:33:07.712Z,46.63
2022-10-17T13:38:28.254Z,46.95
2022-10-17T13:41:01.656Z,46.72
2022-10-17T13:43:38.887Z,46.94
2022-10-17T13:46:25.455Z,46.67
2022-10-17T13:48:53.607Z,47.35
2022-10-17T13:51:20.350Z,47.45
2022-10-17T13:53:47.049Z,47.19
2022-10-17T13:56:34.473Z,47.47
2022-10-17T13:59:07.642Z,47.46
2022-10-17T14:01:35.181Z,47.04
2022-10-17T14:04:19.540Z,47.69
2022-10-17T14:06:52.213Z,47.48
2022-10-17T14:09:23.898Z,48.09
2022-10-17T14:12:17.039Z,47.75
2022-10-17T14:15:09.215Z,47.67
2022-10-17T14:17:36.099Z,47.78
2022-10-17T14:20:34.465Z,47.85
2022-10-17T14:23:10.795Z,48.21
2022-10-17T14:25:40.388Z,48.03
2022-10-17T14:28:14.514Z,47.85
2022-10-17T14:31:01.677Z,48.54
2022-10-17T14:33:31.169Z,48.76
2022-10-17T14:35:59.534Z,48.79
2022-10-17T14:38:28.299Z,48.99
2022-10-17T14:41:42.288Z,49.57
2022-10-17T14:44:18.033Z,49.58
2022-10-17T14:46:50.536Z,50.02
2022-10-17T14:49:28.400Z,50.49
2022-10-17T14:52:34.358Z,50.42
2022-10-17T14:57:44.704Z,51.01
2022-10-17T15:00:16.688Z,51.29
2022-10-17T15:02:44.688Z,51.94
2022-10-17T15:05:13.423Z,51.67
2022-10-17T15:07:41.096Z,52.04
2022-10-17T15:10:22.617Z,51.84
2022-10-17T15:12:58.756Z,52.09
2022-10-17T15:15:31.924Z,52.40
2022-10-17T15:17:58.626Z,52.06
2022-10-17T15:20:28.017Z,52.33
2022-10-17T15:22:55.171Z,52.87
2022-10-17T15:25:21.976Z,52.91
2022-10-17T15:27:48.848Z,53.04
2022-10-17T15:30:21.689Z,53.32
2022-10-17T15:32:49.348Z,53.56
2022-10-17T15:35:16.384Z,53.68
2022-10-17T15:37:43.907Z,53.80
2022-10-17T15:40:15.930Z,54.07
2022-10-17T15:42:42.686Z,54.71
2022-10-17T15:45:17.501Z,54.89
2022-10-17T15:47:50.854Z,54.56
2022-10-17T15:50:18.238Z,54.70
2022-10-17T15:52:47.048Z,54.95
2022-10-17T15:55:13.969Z,54.77
2022-10-17T15:57:42.619Z,54.96
2022-10-17T16:00:19.439Z,54.82
2022-10-17T16:02:47.047Z,54.93
2022-10-17T16:05:17.444Z,54.72
2022-10-17T16:07:46.639Z,55.05
2022-10-17T16:10:14.292Z,55.07
2022-10-17T16:12:44.069Z,55.37
2022-10-17T16:15:15.844Z,55.28
2022-10-17T16:17:43.893Z,55.69
2022-10-17T16:20:12.501Z,55.82
2022-10-17T16:22:42.124Z,55.58
2022-10-17T16:25:29.891Z,55.62
2022-10-17T16:27:58.381Z,56.36
2022-10-17T16:30:26.991Z,56.52
2022-10-17T16:32:54.791Z,56.21
2022-10-17T16:35:24.557Z,56.96
2022-10-17T16:37:51.346Z,56.64
2022-10-17T16:40:18.563Z,57.08
2022-10-17T16:42:45.288Z,56.93
2022-10-17T16:45:20.367Z,57.37
2022-10-17T16:47:47.421Z,57.20
2022-10-17T16:50:14.877Z,57.43
2022-10-17T16:52:41.968Z,57.56
2022-10-17T16:55:09.946Z,56.98
2022-10-17T16:57:36.795Z,57.21
2022-10-17T17:00:05.868Z,57.35
2022-10-17T17:02:32.995Z,57.16
2022-10-17T17:05:00.498Z,57.82
2022-10-17T17:07:29.514Z,58.10
2022-10-17T17:09:56.724Z,57.85
2022-10-17T17:12:23.620Z,57.85
2022-10-17T17:14:50.535Z,57.98
2022-10-17T17:17:30.216Z,57.71
2022-10-17T17:20:04.463Z,58.03
2022-10-17T17:22:31.365Z,57.57
2022-10-17T17:24:58.041Z,57.53
2022-10-17T17:27:27.791Z,57.50
2022-10-17T17:29:54.712Z,57.86
2022-10-17T17:32:21.679Z,57.69
2022-10-17T17:34:48.399Z,57.70
2022-10-17T17:37:15.371Z,57.31
2022-10-17T17:39:42.956Z,57.15
2022-10-17T17:42:09.608Z,57.21
2022-10-17T17:44:36.323Z,57.44
2022-10-17T17:47:03.121Z,57.38
2022-10-17T17:49:29.779Z,57.35
2022-10-17T17:51:56.557Z,57.27
2022-10-17T17:54:23.235Z,57.13
2022-10-17T17:56:50.002Z,57.14
2022-10-17T17:59:16.714Z,56.73
2022-10-17T18:01:43.733Z,57.07
2022-10-17T18:04:11.599Z,56.46
2022-10-17T18:06:38.809Z,56.87
2022-10-17T18:09:06.672Z,56.48
2022-10-17T18:11:33.772Z,56.46
2022-10-17T18:14:02.788Z,56.21
2022-10-17T18:16:32.735Z,56.60
2022-10-17T18:19:04.140Z,56.32
2022-10-17T18:21:34.174Z,56.54
2022-10-17T18:24:00.984Z,56.12
2022-10-17T18:26:28.557Z,56.42
2022-10-17T18:28:55.337Z,56.00
2022-10-17T18:31:28.895Z,56.43
2022-10-17T18:33:57.083Z,56.31
2022-10-17T18:36:26.023Z,55.97
2022-10-17T18:38:53.720Z,55.72
2022-10-17T18:41:22.499Z,55.81
2022-10-17T18:43:50.244Z,55.75
2022-10-17T18:46:19.824Z,56.00
2022-10-17T18:48:47.628Z,55.50
2022-10-17T18:51:16.107Z,55.67
2022-10-17T18:53:44.680Z,55.55
2022-10-17T18:56:11.877Z,55.26
2022-10-17T18:58:39.124Z,55.40
2022-10-17T19:01:09.540Z,55.72
2022-10-17T19:03:36.968Z,55.82
2022-10-17T19:06:13.122Z,55.17
2022-10-17T19:08:40.716Z,55.51
2022-10-17T19:11:15.690Z,55.62
2022-10-17T19:16:22.500Z,55.66
2022-10-17T19:18:54.194Z,55.48
2022-10-17T19:21:22.316Z,55.24
2022-10-17T19:24:00.411Z,55.56
2022-10-17T19:26:29.805Z,55.45
2022-10-17T19:28:57.041Z,55.04
2022-10-17T19:31:27.166Z,54.98
2022-10-17T19:33:54.742Z,55.34
2022-10-17T19:36:25.408Z,55.15
2022-10-17T19:38:55.188Z,54.97
2022-10-17T19:41:22.747Z,55.21
2022-10-17T19:43:49.511Z,55.10
2022-10-17T19:46:23.010Z,55.06
2022-10-17T19:48:50.882Z,55.16
2022-10-17T19:51:19.580Z,54.88
2022-10-17T19:53:47.057Z,54.81
2022-10-17T19:56:13.873Z,55.27
2022-10-17T19:58:46.717Z,55.00
2022-10-17T20:01:20.785Z,54.78
2022-10-17T20:03:47.745Z,54.99
2022-10-17T20:06:14.978Z,54.71
2022-10-17T20:08:41.793Z,55.07
2022-10-17T20:11:11.466Z,54.91
2022-10-17T20:13:38.444Z,54.69
2022-10-17T20:16:06.158Z,54.73
2022-10-17T20:18:33.391Z,54.74
2022-10-17T20:21:05.349Z,55.10
2022-10-17T20:23:32.435Z,54.96
2022-10-17T20:26:13.654Z,54.88
2022-10-17T20:28:48.786Z,54.79
2022-10-17T20:31:15.949Z,55.19
2022-10-17T20:33:42.713Z,55.11
2022-10-17T20:36:10.705Z,55.21
2022-10-17T20:38:37.675Z,54.78
2022-10-17T20:41:06.819Z,55.22
2022-10-17T20:43:34.564Z,54.68
2022-10-17T20:46:09.803Z,55.11
2022-10-17T20:48:55.268Z,55.18
2022-10-17T20:51:22.045Z,54.76
2022-10-17T20:53:49.135Z,55.27
2022-10-17T20:56:34.979Z,55.27
2022-10-17T20:59:04.840Z,54.76
2022-10-17T21:01:32.840Z,54.86
2022-10-17T21:04:15.910Z,54.90
2022-10-17T21:06:52.121Z,54.80
2022-10-17T21:09:19.252Z,55.00
2022-10-17T21:11:46.255Z,55.17
2022-10-17T21:14:13.043Z,55.40
2022-10-17T21:16:40.253Z,54.78
2022-10-17T21:19:07.022Z,54.99
2022-10-17T21:21:36.089Z,55.35
2022-10-17T21:24:05.784Z,55.44
2022-10-17T21:26:34.101Z,55.47
2022-10-17T21:29:05.518Z,55.35
2022-10-17T21:31:34.241Z,55.35
2022-10-17T21:34:05.928Z,55.38
2022-10-17T21:36:32.888Z,55.45
2022-10-17T21:38:59.569Z,55.34
2022-10-17T21:41:28.141Z,55.40
2022-10-17T21:43:56.564Z,55.26
2022-10-17T21:46:23.799Z,55.19
2022-10-17T21:48:51.881Z,55.01
2022-10-17T21:51:21.614Z,55.22
2022-10-17T21:53:48.945Z,55.14
2022-10-17T21:56:20.852Z,54.98
2022-10-17T21:58:48.612Z,54.99
2022-10-17T22:01:19.137Z,54.96
2022-10-17T22:03:51.040Z,55.00
2022-10-17T22:06:39.227Z,54.94
2022-10-17T22:09:11.396Z,54.98
2022-10-17T22:11:38.379Z,55.09
2022-10-17T22:14:07.424Z,55.32
2022-10-17T22:16:34.959Z,55.03
2022-10-17T22:19:10.034Z,55.19
2022-10-17T22:21:38.516Z,54.87
2022-10-17T22:24:07.882Z,54.94
2022-10-17T22:26:36.445Z,55.28
2022-10-17T22:29:04.666Z,55.15
2022-10-17T22:31:31.558Z,55.03
2022-10-17T22:33:58.222Z,55.13
2022-10-17T22:36:25.471Z,55.20
2022-10-17T22:38:52.187Z,55.16
2022-10-17T22:41:19.017Z,54.90
2022-10-17T22:43:45.685Z,55.13
2022-10-17T22:46:13.566Z,54.86
2022-10-17T22:48:40.377Z,54.66
2022-10-17T22:51:07.319Z,54.92
2022-10-17T22:53:35.135Z,55.05
2022-10-17T22:56:03.286Z,54.68
2022-10-17T22:58:30.886Z,54.62
2022-10-17T23:00:58.118Z,54.76
2022-10-17T23:03:26.700Z,54.56
2022-10-17T23:05:53.662Z,54.66
2022-10-17T23:08:20.500Z,54.90
2022-10-17T23:10:47.631Z,54.51
2022-10-17T23:13:15.045Z,54.90
2022-10-17T23:15:42.310Z,54.51
2022-10-17T23:18:09.861Z,54.71
2022-10-17T23:20:37.845Z,55.04
2022-10-17T23:23:04.923Z,54.45
2022-10-17T23:25:33.866Z,54.67
2022-10-17T23:28:01.069Z,54.64
2022-10-17T23:30:28.031Z,54.47
2022-10-17T23:32:54.744Z,54.91
2022-10-17T23:35:21.436Z,54.91
2022-10-17T23:37:48.049Z,54.57
2022-10-17T23:40:14.752Z,54.73
2022-10-17T23:42:41.375Z,54.88
2022-10-17T23:45:08.835Z,54.89
2022-10-17T23:47:35.508Z,54.86
2022-10-17T23:50:02.335Z,54.90
2022-10-17T23:52:29.001Z,54.39
2022-10-17T23:54:55.764Z,54.42
2022-10-17T23:57:22.432Z,54.66
2022-10-17T23:59:49.242Z,54.71
